Aeroporto :
LOGIN :

Iscrizione | Disclaimer

   EN    FR    IT 

 










Sommario :    VFR   VFR Marginale   IFR   IFR Intensivo   IFR Molto Intensivo
Visibilità : 
Base nubi : 
>= 8 km
>= 3000ft
5 / 8 km
1000 / 3000 ft
1500m / 5 km
500 / 1000 ft
800 / 1500m
200 / 500 ft
< 800m
< 200 ft
Simboli :   Temporali  Nebbia  Neve Forte  Precipitazioni Forti  Vento > 20 kt
SIGMETs :   Varie  Temporali  Ghiacco  Turbolenza  Onda orograficha  Ceneri Vulcaniche







- Altitudine del aeroporto : 1400 ft


LSME - Luzern Emmen

ULTIMO METAR :
  • 201050Z 00000KT CAVOK 09/M00 Q1025 RMK BLU

METARs OBSOLETI :
  • 201020Z 00000KT CAVOK 07/M02 Q1025 RMK BLU
  • 200950Z 00000KT CAVOK 07/M01 Q1025 RMK BLU
  • 200920Z VRB01KT CAVOK 05/00 Q1025 RMK BLU
  • 200850Z VRB01KT CAVOK 03/M00 Q1025 RMK BLU
  • 200820Z 00000KT CAVOK 01/M01 Q1025 RMK BLU
  • 200750Z 00000KT CAVOK 00/M02 Q1025 RMK BLU

Previsioni scadute.
Nessun NOTAM noto per questo aeroporto.



MetMap, La meteo Aeronautica in un colpo d'occhio ! - Copyright ORBIFLY Dicembre 2007 - Disclaimer

ORBIFLY MET'MAP TEAM :

Programmazione e sviluppo : Alexandra Zaïnal
Concezione e sviluppo : Baudouin d'Aumeries
Co-Programmazione e sviluppo : Marc-Olivier Méhu
Supporto tecnico e logistico : Manuel Goepfert
Aiuto per la traduzione : Arnaldo La Scala

Contatto : metmap@orbifly.com




FONTI E CREDITI :

   NOAA